Time;durP1;ratioP1;P1;durP2;ratioP2;P2;SDS_P1;SDS_P2;PMS_P1;PMS_P2;Temp;Humidity;BMP_temperature;BMP_pressure;BME280_temperature;BME280_humidity;BME280_pressure;Samples;Min_cycle;Max_cycle;Signal;HPM_P1;HPM_P2
2021/04/22 00:00:58;;;;;;;12.25;8.18;;;;;;;8.52;68.39;95479.00;5108803;28;20162;-69
2021/04/22 00:03:25;;;;;;;10.23;7.00;;;;;;;8.56;67.82;95476.81;5108952;27;20040;-69
2021/04/22 00:05:51;;;;;;;9.68;6.90;;;;;;;8.51;67.59;95464.41;5110590;27;20035;-69
2021/04/22 00:08:17;;;;;;;12.88;6.72;;;;;;;8.63;67.03;95477.59;5105863;27;20861;-69
2021/04/22 00:10:46;;;;;;;13.25;8.18;;;;;;;8.64;67.35;95478.38;5108565;27;20413;-68
2021/04/22 00:13:15;;;;;;;11.90;8.00;;;;;;;8.53;65.56;95461.63;5089928;27;20043;-69
2021/04/22 00:15:43;;;;;;;15.40;8.43;;;;;;;8.52;65.30;95480.81;5108613;28;20047;-68
2021/04/22 00:18:10;;;;;;;12.15;8.40;;;;;;;8.41;65.90;95479.59;5110037;27;20046;-69
2021/04/22 00:20:37;;;;;;;17.35;8.77;;;;;;;8.15;66.33;95485.56;5107582;28;20200;-69
2021/04/22 00:23:08;;;;;;;24.15;14.15;;;;;;;7.88;67.71;95484.75;5108571;27;20409;-68
2021/04/22 00:25:35;;;;;;;17.63;10.07;;;;;;;7.52;68.36;95481.47;5108531;28;20047;-69
2021/04/22 00:28:04;;;;;;;10.27;7.95;;;;;;;7.44;69.37;95484.28;5107369;28;20049;-68
2021/04/22 00:30:31;;;;;;;10.32;7.82;;;;;;;7.38;69.21;95480.66;5106752;27;20062;-68
2021/04/22 00:33:09;;;;;;;9.52;7.25;;;;;;;7.27;69.53;95463.06;5106473;27;20039;-68
2021/04/22 00:35:36;;;;;;;9.57;6.70;;;;;;;7.40;69.50;95478.66;5106529;28;20047;-68
2021/04/22 00:38:04;;;;;;;10.23;6.72;;;;;;;7.44;69.88;95479.88;5108184;28;20035;-68
2021/04/22 00:40:31;;;;;;;9.18;6.53;;;;;;;7.44;70.06;95485.06;5109478;27;20039;-68
2021/04/22 00:43:04;;;;;;;13.88;9.05;;;;;;;7.28;70.87;95477.63;5108065;28;20520;-68
2021/04/22 00:45:31;;;;;;;14.40;10.30;;;;;;;7.37;69.99;95473.88;5108040;27;20036;-68
2021/04/22 00:47:57;;;;;;;10.55;6.65;;;;;;;7.37;69.16;95471.28;5088654;28;20611;-68
2021/04/22 00:50:28;;;;;;;10.45;7.05;;;;;;;7.36;68.92;95472.25;5107852;27;20093;-68
2021/04/22 00:52:56;;;;;;;11.98;6.90;;;;;;;7.35;68.85;95470.69;5108249;28;20046;-68
2021/04/22 00:55:24;;;;;;;12.13;7.00;;;;;;;7.24;68.77;95458.28;5090671;28;20072;-68
2021/04/22 00:57:50;;;;;;;9.63;6.88;;;;;;;7.22;68.85;95455.06;5106494;28;20031;-68
2021/04/22 01:00:20;;;;;;;10.10;6.97;;;;;;;7.08;69.25;95452.44;5106960;28;20046;-68
2021/04/22 01:02:47;;;;;;;10.38;6.68;;;;;;;7.17;69.30;95462.66;5089507;28;20054;-69
2021/04/22 01:05:19;;;;;;;12.85;7.40;;;;;;;7.23;68.94;95470.44;5107648;28;20039;-68
2021/04/22 01:07:45;;;;;;;9.95;7.85;;;;;;;7.23;69.29;95480.00;5107592;28;20043;-68
2021/04/22 01:10:14;;;;;;;12.57;8.30;;;;;;;7.08;71.02;95474.97;5107834;28;20040;-68
2021/04/22 01:12:42;;;;;;;18.30;8.93;;;;;;;6.97;71.52;95486.66;5089441;28;20044;-68
2021/04/22 01:15:12;;;;;;;24.35;15.45;;;;;;;6.98;72.23;95485.66;5107828;27;20042;-69
2021/04/22 01:17:39;;;;;;;12.55;8.93;;;;;;;6.95;71.29;95486.06;5108989;27;20511;-68
2021/04/22 01:20:12;;;;;;;17.55;8.75;;;;;;;6.81;71.74;95489.56;5107475;28;20050;-69
2021/04/22 01:22:38;;;;;;;13.68;8.75;;;;;;;6.77;71.84;95490.94;5107267;28;20036;-69
2021/04/22 01:25:11;;;;;;;21.02;12.35;;;;;;;6.35;73.51;95474.53;5106637;28;20050;-68
2021/04/22 01:27:38;;;;;;;14.23;8.85;;;;;;;6.41;75.35;95490.13;5106657;28;20078;-68
2021/04/22 01:30:11;;;;;;;17.08;9.68;;;;;;;6.19;74.83;95476.41;5107156;27;20043;-68
2021/04/22 01:32:37;;;;;;;19.30;9.10;;;;;;;6.07;76.22;95480.50;5108741;27;20054;-68
2021/04/22 01:35:09;;;;;;;19.10;9.93;;;;;;;6.11;76.39;95484.31;5107992;27;20453;-68
2021/04/22 01:37:35;;;;;;;21.27;11.40;;;;;;;6.08;76.99;95484.69;5088754;28;20508;-68
2021/04/22 01:40:04;;;;;;;16.00;10.60;;;;;;;6.11;77.46;95494.66;5105846;28;20054;-68
2021/04/22 01:42:30;;;;;;;19.35;12.20;;;;;;;6.17;76.71;95480.97;5105638;28;20039;-68
2021/04/22 01:44:57;;;;;;;13.10;9.45;;;;;;;6.27;75.84;95486.63;5106683;28;20913;-68
2021/04/22 01:47:23;;;;;;;16.17;8.60;;;;;;;6.35;74.67;95484.88;5107259;27;20039;-68
2021/04/22 01:49:49;;;;;;;11.90;7.75;;;;;;;6.36;73.49;95491.69;5107773;27;20114;-68
2021/04/22 01:52:16;;;;;;;25.50;9.93;;;;;;;6.28;72.02;95501.19;5106876;28;20040;-68
2021/04/22 01:54:42;;;;;;;20.48;10.18;;;;;;;6.18;71.52;95505.88;5106430;28;20047;-68
2021/04/22 01:57:08;;;;;;;19.05;10.70;;;;;;;6.04;71.75;95493.81;5106201;28;20496;-68
2021/04/22 01:59:35;;;;;;;15.45;9.68;;;;;;;6.08;71.41;95495.03;5105105;28;20035;-68
2021/04/22 02:02:02;;;;;;;20.13;9.68;;;;;;;6.14;71.67;95509.81;5108002;27;20039;-68
2021/04/22 02:04:29;;;;;;;20.95;9.60;;;;;;;6.17;71.42;95504.25;5106318;28;20049;-68
2021/04/22 02:06:56;;;;;;;18.08;9.77;;;;;;;6.14;71.82;95504.63;5107769;27;20039;-68
2021/04/22 02:09:22;;;;;;;20.95;11.13;;;;;;;5.74;73.99;95501.63;5106197;28;20031;-68
2021/04/22 02:11:48;;;;;;;27.65;10.10;;;;;;;5.25;76.37;95502.31;5105942;27;20040;-68
2021/04/22 02:14:15;;;;;;;16.73;9.30;;;;;;;5.33;76.14;95504.78;5106453;27;20062;-68
2021/04/22 02:16:41;;;;;;;19.55;9.70;;;;;;;5.38;76.50;95505.03;5106499;28;20035;-69
2021/04/22 02:19:07;;;;;;;19.67;9.77;;;;;;;5.44;75.26;95509.50;5105981;28;20051;-67
2021/04/22 02:21:34;;;;;;;16.00;8.85;;;;;;;5.31;74.63;95504.97;5106180;28;20090;-68
2021/04/22 02:24:00;;;;;;;14.75;9.45;;;;;;;5.12;74.72;95498.59;5107514;28;20582;-68
2021/04/22 02:26:26;;;;;;;23.02;10.07;;;;;;;5.02;74.79;95505.78;5106237;28;20041;-68
2021/04/22 02:28:52;;;;;;;15.43;8.98;;;;;;;4.88;75.51;95509.19;5086868;28;20063;-68
2021/04/22 02:31:19;;;;;;;16.63;9.38;;;;;;;4.74;75.70;95498.69;5107586;27;20121;-69
2021/04/22 02:33:46;;;;;;;16.45;9.98;;;;;;;4.64;76.25;95503.31;5104901;27;20035;-68
2021/04/22 02:36:13;;;;;;;13.70;8.75;;;;;;;4.46;76.62;95495.13;5105325;27;20050;-68
2021/04/22 02:38:39;;;;;;;12.90;8.35;;;;;;;4.39;77.06;95501.00;5105571;28;20031;-68
2021/04/22 02:41:06;;;;;;;15.25;9.68;;;;;;;4.31;78.03;95498.47;5105886;27;20036;-68
2021/04/22 02:43:32;;;;;;;15.18;8.52;;;;;;;4.22;78.85;95495.16;5106124;28;20045;-68
2021/04/22 02:45:59;;;;;;;15.25;9.43;;;;;;;4.07;78.98;95490.94;5105591;28;20050;-68
2021/04/22 02:48:26;;;;;;;16.60;9.23;;;;;;;4.08;79.44;95497.72;5105837;28;20050;-67
2021/04/22 02:50:56;;;;;;;17.33;10.02;;;;;;;3.98;79.62;95498.75;5087045;28;20058;-68
2021/04/22 02:53:23;;;;;;;17.95;9.50;;;;;;;3.89;80.32;95494.63;5108865;28;20067;-68
2021/04/22 02:55:51;;;;;;;13.90;9.35;;;;;;;3.82;80.61;95501.44;5104671;28;20052;-68
2021/04/22 02:58:24;;;;;;;13.52;8.15;;;;;;;3.71;81.53;95501.84;5104252;28;20036;-68
2021/04/22 03:00:51;;;;;;;16.92;8.57;;;;;;;3.73;81.83;95510.22;5106221;28;20085;-68
2021/04/22 03:03:18;;;;;;;14.98;9.38;;;;;;;3.46;82.27;95499.44;5105918;28;20054;-68
2021/04/22 03:05:44;;;;;;;16.85;9.05;;;;;;;3.59;83.10;95520.25;5105078;28;20039;-68
2021/04/22 03:08:11;;;;;;;15.80;10.10;;;;;;;3.64;83.83;95517.97;5086050;28;20044;-67
2021/04/22 03:10:38;;;;;;;16.77;8.82;;;;;;;3.63;83.41;95524.09;5103406;28;20493;-68
2021/04/22 03:13:05;;;;;;;14.80;9.35;;;;;;;3.60;83.79;95521.88;5105554;28;20039;-68
2021/04/22 03:15:33;;;;;;;16.17;8.27;;;;;;;3.60;83.34;95518.47;5105012;28;20040;-68
2021/04/22 03:18:00;;;;;;;15.73;9.18;;;;;;;3.51;83.61;95520.31;5104220;28;20040;-68
2021/04/22 03:20:26;;;;;;;12.80;8.40;;;;;;;3.44;83.71;95507.31;5102750;28;20044;-68
2021/04/22 03:22:53;;;;;;;12.27;8.25;;;;;;;3.50;83.82;95523.06;5104698;28;20469;-68
2021/04/22 03:25:22;;;;;;;14.50;9.25;;;;;;;3.47;84.14;95529.34;5104491;28;20058;-68
2021/04/22 03:27:49;;;;;;;16.42;9.13;;;;;;;3.38;84.45;95517.47;5105119;28;20039;-68
2021/04/22 03:30:21;;;;;;;15.10;9.20;;;;;;;3.41;84.20;95527.47;5104562;28;20048;-68
2021/04/22 03:32:47;;;;;;;14.23;8.27;;;;;;;3.33;85.02;95530.06;5105468;28;20046;-68
2021/04/22 03:35:14;;;;;;;41.88;19.20;;;;;;;3.35;85.74;95528.94;5105250;28;20044;-68
2021/04/22 03:37:41;;;;;;;20.55;12.25;;;;;;;3.30;86.56;95535.56;5103285;28;20043;-67
2021/04/22 03:40:10;;;;;;;26.10;13.80;;;;;;;3.00;89.62;95546.44;5104260;28;20048;-67
2021/04/22 03:42:36;;;;;;;28.90;13.27;;;;;;;3.06;89.52;95544.97;5105325;28;20052;-67
2021/04/22 03:45:04;;;;;;;41.90;15.55;;;;;;;3.07;89.30;95541.44;5106790;28;20117;-67
2021/04/22 03:47:31;;;;;;;38.83;16.42;;;;;;;3.10;88.47;95541.09;5104922;28;20110;-68
2021/04/22 03:49:57;;;;;;;31.58;13.82;;;;;;;2.84;91.44;95542.13;5104894;28;20051;-67
2021/04/22 03:52:23;;;;;;;23.08;14.13;;;;;;;2.63;92.11;95534.16;5105148;28;20043;-67
2021/04/22 03:54:50;;;;;;;20.30;11.40;;;;;;;2.84;91.61;95547.28;5105208;28;20051;-68
2021/04/22 03:57:17;;;;;;;24.33;11.30;;;;;;;2.92;91.08;95553.38;5105182;28;20096;-67
2021/04/22 03:59:43;;;;;;;21.58;10.45;;;;;;;2.97;90.38;95556.25;5103171;28;20054;-67
2021/04/22 04:02:09;;;;;;;22.58;13.07;;;;;;;3.02;89.62;95559.13;5105073;28;20046;-67
2021/04/22 04:04:36;;;;;;;21.55;12.52;;;;;;;3.04;89.07;95552.06;5108363;28;20501;-67
2021/04/22 04:07:02;;;;;;;24.75;14.25;;;;;;;3.01;88.62;95552.41;5108759;27;20039;-70
2021/04/22 04:09:29;;;;;;;23.58;12.02;;;;;;;2.94;90.32;95552.25;5108891;28;20050;-67
2021/04/22 04:11:55;;;;;;;25.35;14.13;;;;;;;3.00;90.57;95561.09;5108809;28;20043;-67
2021/04/22 04:14:21;;;;;;;33.10;14.80;;;;;;;3.02;91.98;95559.13;5108580;27;20040;-67
2021/04/22 04:16:49;;;;;;;40.35;22.30;;;;;;;2.98;92.46;95557.88;5092279;28;21951;-66
2021/04/22 04:19:15;;;;;;;43.40;24.17;;;;;;;3.16;92.41;95562.81;5107721;28;20122;-67
2021/04/22 04:21:42;;;;;;;40.65;22.27;;;;;;;3.22;92.20;95570.66;5108988;28;20112;-67
2021/04/22 04:24:09;;;;;;;46.10;24.40;;;;;;;3.25;91.93;95565.16;5108961;28;20031;-67
2021/04/22 04:26:35;;;;;;;73.07;35.80;;;;;;;3.34;91.40;95573.66;5108485;27;20039;-67
2021/04/22 04:29:02;;;;;;;63.40;37.60;;;;;;;3.31;91.17;95580.91;5108325;28;20040;-67
2021/04/22 04:31:29;;;;;;;53.58;29.38;;;;;;;3.35;92.21;95584.75;5108305;28;20103;-67
2021/04/22 04:33:56;;;;;;;50.67;22.75;;;;;;;3.42;91.71;95590.84;5109570;27;20047;-67
2021/04/22 04:36:22;;;;;;;39.72;18.75;;;;;;;3.47;92.91;95588.56;5108322;27;20035;-66
2021/04/22 04:38:49;;;;;;;42.47;19.77;;;;;;;3.49;92.82;95581.47;5108424;28;20479;-67
2021/04/22 04:41:15;;;;;;;34.00;21.45;;;;;;;3.49;93.81;95599.50;5089724;28;20043;-68
2021/04/22 04:43:43;;;;;;;26.90;16.17;;;;;;;3.50;93.21;95583.09;5107938;28;20044;-67
2021/04/22 04:46:12;;;;;;;21.83;14.95;;;;;;;3.49;94.09;95602.09;5106850;28;20431;-67
2021/04/22 04:48:39;;;;;;;21.42;13.65;;;;;;;3.40;94.51;95587.63;5107053;28;20412;-67
2021/04/22 04:51:06;;;;;;;32.28;17.13;;;;;;;3.50;95.06;95611.44;5107138;28;20063;-67
2021/04/22 04:53:33;;;;;;;21.60;14.05;;;;;;;3.52;95.13;95606.91;5107810;27;20040;-67
2021/04/22 04:55:59;;;;;;;27.02;13.50;;;;;;;3.61;94.65;95611.06;5107607;27;20066;-67
2021/04/22 04:58:30;;;;;;;23.17;13.73;;;;;;;3.71;94.20;95599.72;5106949;27;20044;-67
2021/04/22 05:00:56;;;;;;;24.08;11.45;;;;;;;3.76;94.07;95603.44;5107444;28;20043;-67
2021/04/22 05:03:23;;;;;;;17.00;11.13;;;;;;;3.85;93.64;95611.91;5107802;28;20053;-67
2021/04/22 05:05:49;;;;;;;20.00;11.27;;;;;;;3.89;94.31;95612.38;5107952;28;20036;-67
2021/04/22 05:08:15;;;;;;;18.15;11.50;;;;;;;3.94;94.30;95604.94;5110743;27;20093;-68
2021/04/22 05:10:41;;;;;;;21.48;14.55;;;;;;;4.10;94.13;95609.19;5108940;27;20035;-68
2021/04/22 05:13:08;;;;;;;21.60;15.75;;;;;;;4.24;94.19;95611.03;5089315;28;20062;-68
2021/04/22 05:15:34;;;;;;;18.88;12.60;;;;;;;4.33;94.47;95604.84;5107339;27;20697;-68
2021/04/22 05:18:00;;;;;;;15.85;9.43;;;;;;;4.48;93.64;95609.22;5106637;27;20035;-70
2021/04/22 05:20:26;;;;;;;14.43;9.82;;;;;;;4.61;93.51;95612.06;5107733;28;20035;-68
2021/04/22 05:22:53;;;;;;;18.05;10.40;;;;;;;4.71;93.42;95607.44;5107312;27;20123;-68
2021/04/22 05:25:19;;;;;;;21.08;10.75;;;;;;;4.81;93.97;95616.69;5107491;27;20035;-68
2021/04/22 05:27:46;;;;;;;23.10;11.35;;;;;;;4.92;93.27;95616.28;5107379;28;20036;-68
2021/04/22 05:30:12;;;;;;;20.40;13.45;;;;;;;4.96;92.90;95609.78;5107130;28;20449;-68
2021/04/22 05:32:39;;;;;;;15.40;11.48;;;;;;;5.16;93.13;95615.22;5108502;27;20711;-68
2021/04/22 05:35:06;;;;;;;16.98;11.07;;;;;;;5.31;91.77;95622.97;5089045;28;20147;-68
2021/04/22 05:37:48;;;;;;;17.65;10.48;;;;;;;5.43;91.30;95621.56;5107030;27;20092;-68
2021/04/22 05:40:15;;;;;;;18.75;11.30;;;;;;;5.56;90.86;95626.09;5107208;27;20039;-68
2021/04/22 05:42:41;;;;;;;18.58;10.93;;;;;;;5.69;90.08;95628.03;5106882;28;20039;-68
2021/04/22 05:45:12;;;;;;;17.75;11.88;;;;;;;5.81;89.34;95624.00;5107222;27;20035;-68
2021/04/22 05:47:39;;;;;;;18.13;11.95;;;;;;;5.83;89.60;95622.03;5107009;28;20397;-68
2021/04/22 05:50:05;;;;;;;17.42;11.45;;;;;;;5.98;88.54;95626.41;5106872;27;20913;-69
2021/04/22 05:52:32;;;;;;;18.50;12.75;;;;;;;6.14;87.46;95633.97;5105606;28;20051;-69
2021/04/22 05:54:58;;;;;;;28.70;13.30;;;;;;;6.25;86.44;95630.88;5105349;28;20043;-67
2021/04/22 05:57:24;;;;;;;17.98;10.30;;;;;;;6.40;85.88;95627.44;5106587;27;20039;-69
2021/04/22 05:59:50;;;;;;;17.90;10.85;;;;;;;6.53;85.31;95622.38;5105239;28;20062;-68
2021/04/22 06:02:20;;;;;;;17.17;11.45;;;;;;;6.67;84.69;95624.09;5106947;27;20040;-69
2021/04/22 06:04:46;;;;;;;20.55;11.05;;;;;;;6.81;84.76;95619.84;5106988;27;20501;-69
2021/04/22 06:07:13;;;;;;;18.40;11.30;;;;;;;6.97;83.82;95623.13;5106583;28;20135;-69
2021/04/22 06:09:39;;;;;;;21.80;11.63;;;;;;;7.07;82.39;95614.03;5106513;28;20124;-69
2021/04/22 06:12:06;;;;;;;18.27;9.82;;;;;;;7.22;81.26;95605.34;5106542;27;20047;-69
2021/04/22 06:14:33;;;;;;;16.27;9.52;;;;;;;7.35;81.64;95618.38;5106317;28;20046;-69
2021/04/22 06:16:59;;;;;;;12.25;8.85;;;;;;;7.37;80.86;95598.25;5105504;28;20032;-69
2021/04/22 06:19:26;;;;;;;15.25;8.93;;;;;;;7.55;81.79;95621.09;5106272;28;20131;-69
2021/04/22 06:21:52;;;;;;;15.82;10.00;;;;;;;7.71;80.48;95619.97;5106489;27;20047;-69
2021/04/22 06:24:19;;;;;;;12.25;8.60;;;;;;;7.87;79.90;95615.41;5106628;28;20044;-70
2021/04/22 06:26:45;;;;;;;13.57;9.20;;;;;;;8.01;81.69;95609.28;5107816;27;20045;-69
2021/04/22 06:29:12;;;;;;;12.32;8.63;;;;;;;8.15;82.33;95605.72;5086972;28;20044;-69
2021/04/22 06:31:38;;;;;;;12.52;8.68;;;;;;;8.19;80.60;95599.16;5106259;28;20159;-70
2021/04/22 06:34:05;;;;;;;11.82;8.18;;;;;;;8.34;80.31;95603.38;5106270;28;20043;-69
2021/04/22 06:36:31;;;;;;;14.38;7.80;;;;;;;8.54;80.50;95601.63;5105953;28;20050;-69
2021/04/22 06:38:58;;;;;;;10.23;7.28;;;;;;;8.69;76.66;95608.44;5105992;28;20535;-69
2021/04/22 06:41:25;;;;;;;12.50;8.35;;;;;;;8.74;76.52;95599.03;5105849;27;20044;-69
2021/04/22 06:43:51;;;;;;;11.52;8.25;;;;;;;8.93;77.32;95607.84;5105652;28;20126;-69
2021/04/22 06:46:17;;;;;;;13.48;8.25;;;;;;;9.15;77.59;95610.22;5087040;28;20044;-69
2021/04/22 06:48:44;;;;;;;13.20;8.07;;;;;;;9.33;76.42;95612.19;5105624;28;20469;-69
2021/04/22 06:51:11;;;;;;;14.98;9.35;;;;;;;9.49;75.72;95608.31;5105396;28;20051;-69
2021/04/22 06:53:37;;;;;;;12.05;8.75;;;;;;;9.62;75.26;95604.91;5106345;28;20047;-69
2021/04/22 06:56:04;;;;;;;13.35;9.25;;;;;;;9.66;73.93;95609.47;5105686;28;20051;-69
2021/04/22 06:58:31;;;;;;;12.57;8.43;;;;;;;9.86;74.79;95606.00;5105413;28;20067;-69
2021/04/22 07:00:57;;;;;;;11.32;8.20;;;;;;;10.04;71.50;95608.69;5086170;28;20056;-69
2021/04/22 07:03:24;;;;;;;14.50;7.78;;;;;;;10.23;71.02;95606.22;5106496;28;20039;-70
2021/04/22 07:05:50;;;;;;;14.00;8.25;;;;;;;10.36;71.91;95611.38;5106743;28;20119;-71
2021/04/22 07:08:17;;;;;;;10.27;8.15;;;;;;;10.58;72.32;95608.41;5108386;28;20039;-71
2021/04/22 07:10:43;;;;;;;10.00;7.85;;;;;;;10.70;71.58;95596.31;5085776;28;20042;-71
2021/04/22 07:13:11;;;;;;;16.52;8.48;;;;;;;10.94;70.14;95610.34;5106336;28;20044;-71
2021/04/22 07:15:38;;;;;;;13.00;8.07;;;;;;;11.04;70.11;95610.66;5087233;28;20741;-71
2021/04/22 07:18:06;;;;;;;13.13;7.45;;;;;;;11.05;69.01;95614.06;5105013;28;20032;-71
2021/04/22 07:20:33;;;;;;;13.63;7.78;;;;;;;11.31;67.45;95612.19;5110814;28;20036;-71
2021/04/22 07:23:00;;;;;;;11.88;8.70;;;;;;;11.43;68.62;95600.03;5104590;28;20045;-71
2021/04/22 07:25:32;;;;;;;13.70;9.07;;;;;;;11.71;67.67;95606.59;5100768;28;20044;-71
2021/04/22 07:27:59;;;;;;;11.00;7.72;;;;;;;11.98;66.14;95607.88;5105249;28;20575;-72
2021/04/22 07:30:26;;;;;;;10.40;7.45;;;;;;;12.15;64.35;95613.28;5105120;28;20097;-72
2021/04/22 07:32:53;;;;;;;20.45;8.15;;;;;;;12.21;63.31;95606.41;5105854;28;20114;-71
2021/04/22 07:35:20;;;;;;;14.40;7.10;;;;;;;12.43;62.52;95610.09;5105103;28;20493;-71
2021/04/22 07:37:50;;;;;;;9.05;6.15;;;;;;;12.55;59.83;95601.47;5105609;28;20038;-71
2021/04/22 07:40:19;;;;;;;9.38;5.88;;;;;;;12.66;57.50;95613.78;5107439;27;20118;-71
2021/04/22 07:42:46;;;;;;;9.02;6.18;;;;;;;12.71;56.45;95605.25;5108650;27;20050;-72
2021/04/22 07:45:15;;;;;;;14.93;6.82;;;;;;;12.77;56.90;95605.16;5110125;27;20042;-71
2021/04/22 07:47:42;;;;;;;10.50;6.45;;;;;;;12.81;56.89;95608.91;5107769;28;20036;-72
2021/04/22 07:50:11;;;;;;;11.57;7.20;;;;;;;12.92;57.42;95602.09;5108726;28;20047;-71
2021/04/22 07:52:37;;;;;;;13.43;8.48;;;;;;;12.99;61.21;95602.00;5108885;28;20039;-71
2021/04/22 07:55:10;;;;;;;13.10;7.35;;;;;;;13.22;60.01;95601.22;5108880;28;20067;-70
2021/04/22 07:57:38;;;;;;;12.05;7.60;;;;;;;13.46;58.60;95601.22;5112084;27;20416;-69
2021/04/22 08:00:07;;;;;;;14.98;7.03;;;;;;;13.60;58.19;95596.53;5108580;27;20035;-69
2021/04/22 08:02:38;;;;;;;12.68;7.15;;;;;;;13.86;55.79;95603.84;5106794;27;20055;-71
2021/04/22 08:05:06;;;;;;;13.88;7.63;;;;;;;14.07;55.31;95606.88;5108708;28;20043;-70
2021/04/22 08:07:33;;;;;;;13.05;6.53;;;;;;;14.15;53.93;95598.63;5107859;28;20036;-71
2021/04/22 08:09:59;;;;;;;11.60;6.40;;;;;;;14.32;53.71;95596.84;5108536;28;20119;-71
2021/04/22 08:12:27;;;;;;;11.57;7.00;;;;;;;14.44;52.86;95601.22;5091694;27;20120;-71
2021/04/22 08:14:57;;;;;;;8.40;6.43;;;;;;;14.49;50.94;95578.53;5093406;28;20056;-71
2021/04/22 08:17:24;;;;;;;8.32;6.03;;;;;;;14.55;49.96;95592.53;5104538;27;20113;-72
2021/04/22 08:19:51;;;;;;;15.85;8.52;;;;;;;14.74;52.81;95590.50;5107101;27;20058;-72
2021/04/22 08:22:18;;;;;;;11.93;5.18;;;;;;;14.79;50.12;95593.19;5088969;28;20063;-72
2021/04/22 08:24:44;;;;;;;14.68;5.50;;;;;;;14.91;49.42;95586.06;5106397;27;20044;-74
2021/04/22 08:27:11;;;;;;;14.95;7.38;;;;;;;15.06;52.74;95582.84;5107883;27;20125;-69
2021/04/22 08:29:38;;;;;;;15.02;8.50;;;;;;;15.23;50.60;95567.09;5108731;27;20036;-71
2021/04/22 08:32:05;;;;;;;12.48;6.15;;;;;;;15.47;48.85;95582.63;5107155;27;20044;-71
2021/04/22 08:34:31;;;;;;;12.98;6.85;;;;;;;15.67;47.14;95576.84;5109259;27;20035;-71
2021/04/22 08:36:58;;;;;;;13.35;5.60;;;;;;;15.75;45.37;95579.03;5107693;28;20154;-71
2021/04/22 08:39:25;;;;;;;16.00;6.97;;;;;;;15.88;47.73;95564.75;5092396;28;20035;-71
2021/04/22 08:41:52;;;;;;;14.10;5.32;;;;;;;16.00;47.87;95554.09;5109429;27;20122;-71
2021/04/22 08:44:20;;;;;;;17.25;6.15;;;;;;;16.28;48.67;95560.16;5108063;28;20315;-71
2021/04/22 08:46:46;;;;;;;10.93;5.15;;;;;;;16.38;45.02;95560.25;5108055;27;20491;-71
2021/04/22 08:49:15;;;;;;;13.70;7.15;;;;;;;16.53;45.10;95557.78;5107927;27;20039;-71
2021/04/22 08:51:41;;;;;;;10.40;5.45;;;;;;;16.50;43.97;95536.44;5107622;27;20058;-71
2021/04/22 08:54:08;;;;;;;14.15;5.38;;;;;;;16.84;44.25;95558.03;5108256;27;20131;-71
2021/04/22 08:56:37;;;;;;;7.47;5.22;;;;;;;17.06;43.47;95551.88;5107784;28;20530;-71
2021/04/22 08:59:05;;;;;;;9.25;3.75;;;;;;;17.07;41.24;95556.06;5107237;28;20055;-71
2021/04/22 09:01:32;;;;;;;11.10;3.58;;;;;;;17.28;40.52;95560.41;5106150;28;20051;-71
2021/04/22 09:04:05;;;;;;;6.70;4.40;;;;;;;17.42;37.76;95552.06;5107034;28;20443;-71
2021/04/22 09:06:36;;;;;;;9.25;4.70;;;;;;;17.59;39.48;95550.00;5109054;27;20100;-72
2021/04/22 09:09:05;;;;;;;9.45;4.57;;;;;;;17.54;36.51;95534.22;5107883;28;20126;-71
2021/04/22 09:11:44;;;;;;;8.60;4.68;;;;;;;17.41;37.49;95537.28;5108766;27;20043;-71
2021/04/22 09:14:14;;;;;;;9.25;4.75;;;;;;;17.68;38.48;95551.13;5107070;28;20531;-71
2021/04/22 09:16:41;;;;;;;10.65;5.15;;;;;;;17.80;37.59;95536.94;5105772;28;20043;-71
2021/04/22 09:19:11;;;;;;;14.20;4.45;;;;;;;17.95;38.05;95540.44;5072379;28;20071;-71
2021/04/22 09:21:41;;;;;;;9.23;4.07;;;;;;;18.22;34.52;95528.09;5107627;28;20042;-71
2021/04/22 09:24:12;;;;;;;13.00;4.45;;;;;;;18.35;36.88;95543.41;5106143;28;20709;-71
2021/04/22 09:26:45;;;;;;;8.05;4.72;;;;;;;18.67;37.06;95539.69;5104768;27;20108;-71
2021/04/22 09:29:14;;;;;;;8.57;4.47;;;;;;;18.51;37.97;95531.81;5105188;27;20053;-71
2021/04/22 09:31:42;;;;;;;9.70;4.93;;;;;;;18.76;36.67;95506.44;5107405;28;20045;-71
2021/04/22 09:34:15;;;;;;;11.48;4.30;;;;;;;19.24;34.90;95533.31;5107295;28;20050;-71
2021/04/22 09:36:53;;;;;;;6.07;4.60;;;;;;;19.38;31.21;95520.34;5106232;27;20049;-73
2021/04/22 09:39:25;;;;;;;6.95;3.45;;;;;;;19.70;29.37;95523.63;5108098;28;20067;-71
2021/04/22 09:41:59;;;;;;;9.75;3.97;;;;;;;19.98;30.22;95514.28;5109788;28;20506;-73
2021/04/22 09:44:26;;;;;;;;;;;;;;;20.38;29.18;95502.66;5111292;27;20042;-74
2021/04/22 09:47:09;;;;;;;6.40;3.60;;;;;;;20.38;28.71;95497.38;5109618;27;20116;-74
2021/04/22 09:50:00;;;;;;;4.80;3.60;;;;;;;20.77;29.40;95504.47;5113920;27;20039;-73
2021/04/22 09:52:39;;;;;;;5.82;2.85;;;;;;;20.95;27.37;95488.94;5110907;27;20063;-74
2021/04/22 09:55:09;;;;;;;13.13;4.72;;;;;;;21.14;29.45;95492.47;5110760;27;20056;-74
2021/04/22 09:57:37;;;;;;;5.28;3.15;;;;;;;21.51;29.56;95485.69;5110616;27;20043;-74
2021/04/22 10:00:13;;;;;;;3.78;3.40;;;;;;;21.51;27.57;95493.63;5109600;27;20047;-74
2021/04/22 10:02:56;;;;;;;7.25;3.63;;;;;;;20.75;25.90;95500.53;5111768;27;20035;-73
2021/04/22 10:05:34;;;;;;;7.53;3.83;;;;;;;20.54;28.48;95490.06;5109154;27;20039;-73
2021/04/22 10:08:15;;;;;;;5.20;3.47;;;;;;;21.14;27.16;95484.50;5110404;27;20027;-73
2021/04/22 10:10:56;;;;;;;7.50;4.25;;;;;;;20.95;27.80;95494.25;5108371;28;20034;-74
2021/04/22 10:13:22;;;;;;;9.13;3.92;;;;;;;21.11;27.67;95487.72;5106938;28;20058;-74
2021/04/22 10:15:51;;;;;;;6.95;5.18;;;;;;;21.17;27.65;95470.69;5109437;27;20043;-73
2021/04/22 10:18:18;;;;;;;8.00;4.30;;;;;;;21.47;29.35;95468.78;5113660;27;20036;-74
2021/04/22 10:20:46;;;;;;;6.40;3.92;;;;;;;21.85;27.78;95466.16;5113576;27;20063;-77
2021/04/22 10:23:13;;;;;;;8.38;3.53;;;;;;;21.98;26.02;95471.81;5097124;28;20039;-76
2021/04/22 10:25:43;;;;;;;8.85;3.50;;;;;;;22.27;24.09;95459.22;5107344;28;20044;-75
2021/04/22 10:28:16;;;;;;;4.03;3.17;;;;;;;22.15;24.99;95456.19;5110134;27;20499;-75
2021/04/22 10:30:47;;;;;;;8.23;3.53;;;;;;;21.72;23.98;95453.63;5106179;28;20119;-74
2021/04/22 10:33:14;;;;;;;6.72;3.53;;;;;;;22.16;23.97;95452.44;5105379;28;20118;-74
2021/04/22 10:35:43;;;;;;;8.52;2.58;;;;;;;21.95;24.58;95459.94;5106793;28;20043;-75
2021/04/22 10:38:11;;;;;;;7.80;2.72;;;;;;;22.10;24.13;95438.47;5088567;28;20039;-73
2021/04/22 10:40:44;;;;;;;5.72;2.70;;;;;;;22.01;23.56;95436.78;5088860;28;20389;-74
2021/04/22 10:43:23;;;;;;;3.33;2.28;;;;;;;22.17;23.42;95443.41;5088126;28;20039;-74
2021/04/22 10:45:53;;;;;;;10.05;2.92;;;;;;;22.28;24.29;95434.25;5109163;27;20067;-74
2021/04/22 10:48:20;;;;;;;5.25;2.30;;;;;;;22.55;21.62;95440.72;5089619;28;20032;-74
2021/04/22 10:50:50;;;;;;;4.28;2.92;;;;;;;22.53;23.32;95424.28;5106504;28;20051;-73
2021/04/22 10:53:19;;;;;;;3.58;2.38;;;;;;;22.41;22.07;95421.31;5109077;27;20044;-73
2021/04/22 10:55:48;;;;;;;5.82;2.33;;;;;;;22.54;23.82;95431.16;5107216;28;20428;-73
2021/04/22 10:58:43;;;;;;;8.52;2.50;;;;;;;23.07;21.36;95432.63;5108692;28;20047;-73
2021/04/22 11:01:12;;;;;;;4.22;1.98;;;;;;;22.86;21.48;95421.56;5103582;28;20058;-74
2021/04/22 11:03:44;;;;;;;11.90;2.03;;;;;;;23.02;22.69;95414.88;5106046;28;20477;-73
2021/04/22 11:06:15;;;;;;;1.73;1.27;;;;;;;23.44;19.95;95413.00;5106319;28;20040;-72
2021/04/22 11:08:47;;;;;;;4.03;2.00;;;;;;;23.40;19.98;95414.69;5105512;28;20032;-74
2021/04/22 11:11:24;;;;;;;3.03;2.00;;;;;;;23.38;19.26;95408.88;5110281;28;20054;-75
2021/04/22 11:14:03;;;;;;;3.17;1.92;;;;;;;23.86;21.25;95410.28;5111955;28;20039;-74
2021/04/22 11:16:32;;;;;;;4.05;1.85;;;;;;;23.84;20.18;95397.28;5095025;28;20051;-74
2021/04/22 11:18:58;;;;;;;2.92;1.65;;;;;;;24.12;19.37;95397.13;5112860;27;20151;-74
2021/04/22 11:21:30;;;;;;;2.97;1.75;;;;;;;24.01;18.72;95395.81;5093387;28;20118;-72
2021/04/22 11:24:00;;;;;;;4.32;2.67;;;;;;;23.62;17.91;95383.91;5113211;27;20160;-74
2021/04/22 11:26:28;;;;;;;6.40;1.77;;;;;;;24.09;17.97;95392.41;5110772;28;20068;-75
2021/04/22 11:28:57;;;;;;;4.13;1.52;;;;;;;23.92;19.01;95397.63;5099111;28;20109;-74
2021/04/22 11:31:25;;;;;;;3.85;1.83;;;;;;;23.89;18.84;95400.88;5115998;27;20047;-74
2021/04/22 11:34:06;;;;;;;3.00;1.90;;;;;;;23.52;19.05;95392.13;5110506;28;20047;-73